CRA weather

Candelaria Airport
Candeleria, Campeche, Mexico

Public forecast

Using degrees Celsius for public forecast. Weather courtesy of forecast.io.

Closest aviation weather report (METAR) to Candelaria Airport

Closest report is Ciudad del Carmen International Airport, 52.6 nm (97.4 km) WNW. Retrieved 2019/12/12 20:47 UTC (28 minutes ago):

MMCE 122047Z 35006KT 6SM SCT030CB 26/23 A3001 RMK SLP159 57027 903 8/300

Closest aviation forecast (TAF) to Candelaria Airport

Closest forecast is Ciudad del Carmen International Airport, 52.6 nm (97.4 km) WNW. Retrieved 2019/12/12 18:30 UTC (3 hours ago):

TAF COR MMCE 121820Z 1218/1318 10010KT P6SM BKN015 BKN080 TEMPO 1218/1222 4SM RA FM130200 02010KT 5SM HZ SCT015 BKN080 FM130900 34010KT 5SM -RA OVC020 FM131600 34010KT 5SM HZ OVC030